Página principal
METAR-TAF:

METAR-TAF

Aeroportos :

El Aaiún, Marrocos

latitude: 27-10N, longitude: 013-12-59W, altura: 6 m

Observação actual do tempo

O boletim foi feito há 17 minutos, às 07:00 UTC
Vento 12 kt de nordeste
Temperatura 14°C
Humidade 82%
Pressão 1019 hPa
Visibilidade: 5000 m
Encobertoa uma altura de 1300 ft

METAR: GMML 180700Z 04012KT 5000 OVC013 14/11 Q1019 NOSIG

Hora: 07:17 (07:17 UTC)

Previsão

O boletim foi feito há 2 horas e 17 minutos, às 05:00 UTC
Previsão válida de 18 às 06 UTC a 19 às 12 UTC
Vento 11 kt de nor-nordeste
Visibilidade: 6000 m
Encobertoa uma altura de 1300 ft
Tornando-se
de 18 às 10 UTC a 18 às 12 UTC
Tornando-se
de 18 às 21 UTC a 18 às 23 UTC
Nuvens fragmentadasa uma altura de 1300 ft

TAF: GMML 180500Z 1806/1912 02011KT 6000 OVC013 BECMG 1810/1812 NSC BECMG 1821/1823 BKN013

Observações e previsões do tempo de mais de 4000 aeroportos (mensagens METAR e TAF).

As estações disponíveis são os pontos amarelos e vermelhos sobre o mapa.

Mova o rato sobre o mapa para ver o nome da estação.

Depois clique no ponto para visualizar as observações e previsões meteorológicas.

Para alterar o mapa : clique nos botões verdes com uma cruz preta para aumentar o zoom; no botão verde com uma pitada de zoom; ou nas setas verdes para mapas adjacentes.


METAR-TAF: